Time;durP1;ratioP1;P1;durP2;ratioP2;P2;SDS_P1;SDS_P2;PMS_P1;PMS_P2;Temp;Humidity;BMP_temperature;BMP_pressure;BME280_temperature;BME280_humidity;BME280_pressure;Samples;Min_cycle;Max_cycle;Signal;HPM_P1;HPM_P2
2021/12/12 00:02:34;;;;;;;7.00;6.25;;;;;;;;;;4995762;28;20207;-49
2021/12/12 00:05:07;;;;;;;13.20;6.88;;;;;;;;;;4995517;28;20173;-50
2021/12/12 00:07:33;;;;;;;11.18;6.47;;;;;;;;;;4995218;28;20195;-49
2021/12/12 00:10:04;;;;;;;12.93;5.20;;;;;;;;;;4994905;28;20251;-49
2021/12/12 00:12:31;;;;;;;11.50;6.15;;;;;;;;;;4995241;28;20206;-48
2021/12/12 00:14:58;;;;;;;10.80;6.35;;;;;;;;;;4995238;28;20314;-49
2021/12/12 00:17:25;;;;;;;10.70;5.50;;;;;;;;;;4995058;28;20189;-49
2021/12/12 00:19:51;;;;;;;8.77;6.07;;;;;;;;;;4994901;28;20207;-49
2021/12/12 00:22:19;;;;;;;10.30;6.10;;;;;;;;;;4994946;28;20173;-48
2021/12/12 00:24:45;;;;;;;12.73;5.88;;;;;;;;;;4994205;28;20169;-49
2021/12/12 00:27:11;;;;;;;9.95;5.55;;;;;;;;;;4994920;28;20181;-49
2021/12/12 00:29:38;;;;;;;7.85;5.70;;;;;;;;;;4994835;28;20200;-49
2021/12/12 00:32:06;;;;;;;12.05;6.00;;;;;;;;;;4994687;28;20229;-49
2021/12/12 00:34:35;;;;;;;8.27;5.40;;;;;;;;;;4994807;28;20179;-49
2021/12/12 00:37:01;;;;;;;11.60;5.85;;;;;;;;;;4994621;28;20189;-50
2021/12/12 00:39:29;;;;;;;6.20;5.60;;;;;;;;;;4994658;28;20208;-50
2021/12/12 00:42:04;;;;;;;11.93;5.78;;;;;;;;;;4994436;28;20612;-50
2021/12/12 00:44:30;;;;;;;10.60;5.82;;;;;;;;;;4994725;28;20203;-49
2021/12/12 00:46:58;;;;;;;6.60;3.95;;;;;;;;;;4994526;28;20189;-48
2021/12/12 00:49:25;;;;;;;9.43;5.50;;;;;;;;;;4994479;28;20169;-49
2021/12/12 00:51:51;;;;;;;9.55;4.70;;;;;;;;;;4994175;28;20177;-48
2021/12/12 00:54:17;;;;;;;12.90;4.75;;;;;;;;;;4994502;28;20196;-50
2021/12/12 00:56:45;;;;;;;8.82;4.63;;;;;;;;;;4994205;28;20209;-48
2021/12/12 00:59:11;;;;;;;9.20;5.88;;;;;;;;;;4994353;28;20208;-49
2021/12/12 01:01:39;;;;;;;9.95;5.47;;;;;;;;;;4994014;28;20191;-48
2021/12/12 01:04:12;;;;;;;13.65;5.97;;;;;;;;;;4994213;28;20172;-48
2021/12/12 01:06:38;;;;;;;12.98;6.05;;;;;;;;;;4994173;28;20208;-48
2021/12/12 01:09:07;;;;;;;10.05;4.60;;;;;;;;;;4994188;28;20175;-50
2021/12/12 01:11:35;;;;;;;14.90;5.68;;;;;;;;;;4993872;28;20169;-50
2021/12/12 01:14:01;;;;;;;10.00;4.63;;;;;;;;;;4994103;28;20220;-49
2021/12/12 01:16:30;;;;;;;6.78;4.97;;;;;;;;;;4993986;28;20268;-49
2021/12/12 01:18:58;;;;;;;6.30;4.40;;;;;;;;;;4993859;28;20227;-49
2021/12/12 01:21:34;;;;;;;7.90;4.65;;;;;;;;;;4993621;28;20596;-49
2021/12/12 01:24:23;;;;;;;6.53;4.40;;;;;;;;;;4993870;28;20168;-50
2021/12/12 01:26:49;;;;;;;12.77;4.78;;;;;;;;;;4993781;28;20189;-49
2021/12/12 01:29:16;;;;;;;7.13;4.13;;;;;;;;;;4993718;28;20231;-49
2021/12/12 01:31:47;;;;;;;12.30;4.60;;;;;;;;;;4993527;28;20272;-48
2021/12/12 01:34:14;;;;;;;8.63;4.40;;;;;;;;;;4993989;28;20177;-49
2021/12/12 01:39:26;;;;;;;14.55;4.40;;;;;;;;;;4993636;28;20207;-49
2021/12/12 01:41:55;;;;;;;4.95;4.05;;;;;;;;;;4993199;28;20169;-48
2021/12/12 01:44:32;;;;;;;10.25;3.60;;;;;;;;;;4993484;28;20169;-49
2021/12/12 01:47:07;;;;;;;6.97;4.30;;;;;;;;;;4993697;28;20285;-48
2021/12/12 01:49:34;;;;;;;7.43;3.70;;;;;;;;;;4993382;28;20250;-48
2021/12/12 01:52:01;;;;;;;12.65;4.13;;;;;;;;;;4993496;28;20172;-49
2021/12/12 01:54:32;;;;;;;5.13;3.70;;;;;;;;;;4993803;28;20667;-48
2021/12/12 01:57:00;;;;;;;9.23;3.90;;;;;;;;;;4993120;28;20265;-49
2021/12/12 01:59:28;;;;;;;4.00;3.40;;;;;;;;;;4993166;28;20199;-49
2021/12/12 02:01:57;;;;;;;8.55;3.90;;;;;;;;;;4992332;28;20187;-48
2021/12/12 02:04:26;;;;;;;7.90;3.97;;;;;;;;;;4992595;28;20169;-48
2021/12/12 02:06:52;;;;;;;5.68;4.22;;;;;;;;;;4992469;28;20189;-48
2021/12/12 02:09:19;;;;;;;12.30;4.00;;;;;;;;;;4993157;28;20172;-48
2021/12/12 02:11:47;;;;;;;10.85;4.93;;;;;;;;;;4992709;28;20169;-49
2021/12/12 02:14:18;;;;;;;9.23;4.05;;;;;;;;;;4993060;28;20172;-49
2021/12/12 02:16:46;;;;;;;12.32;3.90;;;;;;;;;;4992884;28;20193;-49
2021/12/12 02:19:14;;;;;;;10.52;4.45;;;;;;;;;;4992758;28;20176;-50
2021/12/12 02:21:59;;;;;;;8.15;4.40;;;;;;;;;;4992553;28;20697;-50
2021/12/12 02:35:25;;;;;;;10.40;4.45;;;;;;;;;;4992969;28;20591;-49
2021/12/12 02:37:54;;;;;;;6.95;3.60;;;;;;;;;;4992546;28;20188;-50
2021/12/12 02:40:23;;;;;;;15.93;4.28;;;;;;;;;;4992171;28;20650;-49
2021/12/12 02:42:49;;;;;;;8.02;3.97;;;;;;;;;;4992757;28;20177;-49
2021/12/12 02:45:17;;;;;;;16.60;4.70;;;;;;;;;;4992639;28;20195;-49
2021/12/12 02:47:45;;;;;;;9.63;4.28;;;;;;;;;;4992128;28;20185;-50
2021/12/12 02:50:20;;;;;;;9.15;4.40;;;;;;;;;;4992698;28;20183;-49
2021/12/12 02:52:48;;;;;;;11.07;4.50;;;;;;;;;;4992450;28;20214;-50
2021/12/12 02:55:20;;;;;;;4.70;3.47;;;;;;;;;;4992472;28;20177;-48
2021/12/12 02:57:46;;;;;;;6.30;4.05;;;;;;;;;;4992326;28;20207;-49
2021/12/12 03:00:15;;;;;;;11.23;5.00;;;;;;;;;;4992191;28;20238;-48
2021/12/12 03:02:45;;;;;;;6.95;3.53;;;;;;;;;;4992356;28;20415;-50
2021/12/12 03:05:12;;;;;;;7.43;4.43;;;;;;;;;;4992313;28;20223;-49
2021/12/12 03:07:38;;;;;;;6.55;4.45;;;;;;;;;;4992307;28;20185;-50
2021/12/12 03:10:06;;;;;;;5.75;4.22;;;;;;;;;;4992045;28;20228;-49
2021/12/12 03:12:34;;;;;;;9.43;4.20;;;;;;;;;;4992315;28;20578;-49
2021/12/12 03:15:01;;;;;;;6.05;4.47;;;;;;;;;;4992296;28;20173;-48
2021/12/12 03:17:27;;;;;;;10.00;4.95;;;;;;;;;;4992121;28;20247;-49
2021/12/12 03:19:55;;;;;;;10.95;4.15;;;;;;;;;;4991871;28;20624;-47
2021/12/12 03:22:23;;;;;;;11.25;3.70;;;;;;;;;;4992224;28;20161;-49
2021/12/12 03:24:49;;;;;;;7.70;4.03;;;;;;;;;;4992456;28;20179;-49
2021/12/12 03:27:16;;;;;;;9.07;2.95;;;;;;;;;;4992147;28;20268;-48
2021/12/12 03:29:42;;;;;;;6.80;3.40;;;;;;;;;;4991986;28;20169;-49
2021/12/12 03:32:10;;;;;;;5.35;3.53;;;;;;;;;;4991856;28;20292;-49
2021/12/12 03:34:39;;;;;;;8.93;3.50;;;;;;;;;;4992160;28;20201;-50
2021/12/12 03:37:07;;;;;;;8.20;3.60;;;;;;;;;;4992015;28;20197;-49
2021/12/12 03:39:36;;;;;;;5.38;3.35;;;;;;;;;;4991996;28;20332;-49
2021/12/12 03:42:04;;;;;;;5.53;4.30;;;;;;;;;;4991821;28;20170;-48
2021/12/12 03:44:32;;;;;;;5.43;3.42;;;;;;;;;;4991906;28;20200;-49
2021/12/12 03:49:27;;;;;;;7.70;3.97;;;;;;;;;;5047720;28;20219;-53
2021/12/12 03:51:53;;;;;;;7.30;3.83;;;;;;;;;;5050511;28;20244;-52
2021/12/12 03:54:19;;;;;;;8.75;3.80;;;;;;;;;;5051193;28;20167;-53
2021/12/12 03:56:46;;;;;;;6.50;3.13;;;;;;;;;;5051097;28;20170;-52
2021/12/12 03:59:13;;;;;;;8.05;3.50;;;;;;;;;;5052004;28;20436;-52
2021/12/12 04:01:43;;;;;;;5.00;3.00;;;;;;;;;;5054442;28;20167;-54
2021/12/12 04:04:14;;;;;;;6.68;3.78;;;;;;;;;;5054814;28;20198;-53
2021/12/12 04:06:40;;;;;;;9.32;3.40;;;;;;;;;;5054733;28;20190;-53
2021/12/12 04:09:07;;;;;;;3.43;3.10;;;;;;;;;;5054769;28;20178;-53
2021/12/12 04:11:35;;;;;;;7.53;3.80;;;;;;;;;;5054370;28;20400;-55
2021/12/12 04:14:03;;;;;;;6.75;3.53;;;;;;;;;;5054520;28;20178;-53
2021/12/12 04:16:30;;;;;;;9.38;3.72;;;;;;;;;;5054518;28;20442;-52
2021/12/12 04:18:57;;;;;;;12.70;3.45;;;;;;;;;;5054572;28;20256;-53
2021/12/12 04:21:23;;;;;;;14.60;3.60;;;;;;;;;;5054110;28;20223;-53
2021/12/12 04:23:50;;;;;;;4.95;3.05;;;;;;;;;;5054617;28;20521;-53
2021/12/12 04:26:16;;;;;;;10.35;4.32;;;;;;;;;;5054351;28;20246;-53
2021/12/12 04:28:42;;;;;;;9.53;3.30;;;;;;;;;;5054181;28;20211;-52
2021/12/12 04:31:09;;;;;;;4.68;3.50;;;;;;;;;;5054058;28;20417;-52
2021/12/12 04:33:35;;;;;;;7.88;3.80;;;;;;;;;;5054251;28;20261;-53
2021/12/12 04:36:01;;;;;;;6.78;3.25;;;;;;;;;;5054263;28;20174;-53
2021/12/12 04:38:27;;;;;;;4.43;2.90;;;;;;;;;;5054076;28;20199;-54
2021/12/12 04:40:53;;;;;;;5.83;3.60;;;;;;;;;;5053715;28;20510;-52
2021/12/12 04:43:19;;;;;;;7.72;4.25;;;;;;;;;;5053932;28;20916;-53
2021/12/12 04:46:07;;;;;;;5.85;3.10;;;;;;;;;;5053913;28;20171;-52
2021/12/12 04:51:47;;;;;;;6.65;3.88;;;;;;;;;;5053841;28;20583;-52
2021/12/12 04:54:16;;;;;;;5.10;3.35;;;;;;;;;;5053778;28;20197;-52
2021/12/12 04:56:51;;;;;;;7.10;3.40;;;;;;;;;;5053740;28;20163;-53
2021/12/12 04:59:20;;;;;;;5.93;3.58;;;;;;;;;;5053691;28;20626;-52
2021/12/12 05:01:50;;;;;;;3.90;3.50;;;;;;;;;;5053331;28;20579;-52
2021/12/12 05:04:15;;;;;;;12.32;4.20;;;;;;;;;;5053509;28;20159;-52
2021/12/12 05:06:45;;;;;;;4.53;3.57;;;;;;;;;;5053569;28;20163;-53
2021/12/12 05:09:31;;;;;;;9.25;4.10;;;;;;;;;;5053501;28;20917;-53
2021/12/12 05:12:03;;;;;;;10.85;4.05;;;;;;;;;;5053033;28;20175;-53
2021/12/12 05:14:33;;;;;;;11.18;4.55;;;;;;;;;;5053455;28;20174;-53
2021/12/12 05:17:06;;;;;;;4.55;4.05;;;;;;;;;;5053105;28;20167;-54
2021/12/12 05:19:33;;;;;;;11.30;4.28;;;;;;;;;;5053182;28;20199;-53
2021/12/12 05:22:05;;;;;;;12.32;4.40;;;;;;;;;;5053199;28;20552;-52
2021/12/12 05:24:32;;;;;;;9.52;4.28;;;;;;;;;;5053280;28;20175;-52
2021/12/12 05:27:03;;;;;;;6.18;3.90;;;;;;;;;;5053089;28;20163;-53
2021/12/12 05:29:34;;;;;;;12.55;4.65;;;;;;;;;;5053040;28;20175;-53
2021/12/12 05:32:03;;;;;;;9.93;4.75;;;;;;;;;;5052954;28;20181;-53
2021/12/12 05:34:30;;;;;;;9.43;4.20;;;;;;;;;;5053009;28;20164;-53
2021/12/12 05:36:57;;;;;;;9.82;4.72;;;;;;;;;;5052864;28;20600;-54
2021/12/12 05:39:24;;;;;;;4.28;3.60;;;;;;;;;;5053367;28;20274;-52
2021/12/12 05:41:51;;;;;;;9.07;4.47;;;;;;;;;;5052531;28;20171;-51
2021/12/12 05:44:18;;;;;;;8.98;5.10;;;;;;;;;;5053009;28;20207;-52
2021/12/12 05:46:44;;;;;;;12.07;5.18;;;;;;;;;;5052714;28;20242;-52
2021/12/12 05:49:11;;;;;;;7.90;4.37;;;;;;;;;;5052701;28;20266;-51
2021/12/12 05:51:37;;;;;;;5.90;3.58;;;;;;;;;;5052419;28;20455;-51
2021/12/12 05:54:05;;;;;;;11.95;5.40;;;;;;;;;;5052660;28;20176;-51
2021/12/12 05:56:33;;;;;;;19.15;5.43;;;;;;;;;;5052821;28;20393;-52
2021/12/12 05:59:00;;;;;;;12.88;4.35;;;;;;;;;;5052666;28;20183;-51
2021/12/12 06:01:27;;;;;;;13.90;5.18;;;;;;;;;;5052270;28;20579;-51
2021/12/12 06:03:53;;;;;;;14.48;5.55;;;;;;;;;;5052497;28;20163;-51
2021/12/12 06:06:21;;;;;;;16.67;5.30;;;;;;;;;;5052404;28;20186;-51
2021/12/12 06:08:48;;;;;;;15.10;5.35;;;;;;;;;;5052283;28;20309;-51
2021/12/12 06:11:15;;;;;;;12.13;5.53;;;;;;;;;;5052104;28;20163;-50
2021/12/12 06:13:41;;;;;;;12.82;5.22;;;;;;;;;;5052293;28;20182;-51
2021/12/12 06:16:08;;;;;;;14.80;5.03;;;;;;;;;;5052154;28;20548;-51
2021/12/12 06:18:35;;;;;;;9.40;4.75;;;;;;;;;;5052150;28;20240;-51
2021/12/12 06:21:02;;;;;;;10.63;5.10;;;;;;;;;;5051804;28;20190;-52
2021/12/12 06:23:28;;;;;;;15.45;6.03;;;;;;;;;;5051523;28;20163;-51
2021/12/12 06:25:54;;;;;;;9.00;4.00;;;;;;;;;;5052342;28;20168;-50
2021/12/12 06:28:25;;;;;;;6.68;5.22;;;;;;;;;;5052136;28;20194;-51
2021/12/12 06:30:51;;;;;;;12.07;6.75;;;;;;;;;;5051860;28;20213;-51
2021/12/12 06:33:18;;;;;;;13.60;5.32;;;;;;;;;;5051971;28;20257;-51
2021/12/12 06:35:44;;;;;;;12.52;5.32;;;;;;;;;;5052036;28;20649;-51
2021/12/12 06:38:11;;;;;;;5.27;3.40;;;;;;;;;;5051942;28;20191;-51
2021/12/12 06:40:38;;;;;;;11.60;5.40;;;;;;;;;;5051746;28;20507;-51
2021/12/12 06:43:05;;;;;;;8.38;5.10;;;;;;;;;;5051973;28;20188;-51
2021/12/12 06:45:32;;;;;;;7.57;4.43;;;;;;;;;;5051795;28;20305;-51
2021/12/12 06:47:58;;;;;;;7.05;4.60;;;;;;;;;;5051680;28;20206;-51
2021/12/12 06:50:26;;;;;;;10.40;4.80;;;;;;;;;;5051572;28;20222;-51
2021/12/12 06:52:53;;;;;;;11.48;4.70;;;;;;;;;;5051684;28;20186;-51
2021/12/12 06:55:19;;;;;;;6.95;3.95;;;;;;;;;;5051726;28;20202;-50
2021/12/12 06:57:45;;;;;;;8.52;4.53;;;;;;;;;;5051637;28;20187;-50
2021/12/12 07:00:14;;;;;;;6.32;4.05;;;;;;;;;;5051344;28;20203;-51
2021/12/12 07:02:41;;;;;;;4.00;3.65;;;;;;;;;;5051709;28;20289;-51
2021/12/12 07:05:08;;;;;;;6.70;4.15;;;;;;;;;;5051472;28;20221;-51
2021/12/12 07:07:34;;;;;;;7.50;4.20;;;;;;;;;;5051657;28;20206;-50
2021/12/12 07:10:00;;;;;;;9.53;4.30;;;;;;;;;;5051321;28;20583;-51
2021/12/12 07:12:26;;;;;;;5.80;4.05;;;;;;;;;;5051609;28;20823;-50
2021/12/12 07:14:53;;;;;;;5.70;4.30;;;;;;;;;;5051538;28;20163;-50
2021/12/12 07:17:19;;;;;;;7.65;4.10;;;;;;;;;;5051930;28;20660;-51
2021/12/12 07:19:45;;;;;;;4.88;3.78;;;;;;;;;;5051159;28;20306;-52
2021/12/12 07:22:11;;;;;;;3.40;3.05;;;;;;;;;;5051382;28;20261;-52
2021/12/12 07:24:38;;;;;;;4.22;3.90;;;;;;;;;;5051501;28;20664;-51
2021/12/12 07:27:05;;;;;;;3.53;3.25;;;;;;;;;;5051374;28;20167;-52
2021/12/12 07:29:31;;;;;;;3.92;3.33;;;;;;;;;;5051369;28;20182;-50
2021/12/12 07:31:58;;;;;;;4.53;3.28;;;;;;;;;;5051394;28;20171;-50
2021/12/12 07:34:26;;;;;;;3.53;3.30;;;;;;;;;;5052531;28;20250;-50
2021/12/12 07:36:55;;;;;;;3.80;3.30;;;;;;;;;;5055206;28;20200;-51
2021/12/12 07:39:22;;;;;;;4.50;3.53;;;;;;;;;;5055139;28;20668;-51
2021/12/12 07:41:49;;;;;;;3.80;3.03;;;;;;;;;;5055275;28;20155;-50
2021/12/12 07:44:16;;;;;;;8.23;2.53;;;;;;;;;;5055100;28;20254;-51
2021/12/12 07:46:44;;;;;;;2.80;2.60;;;;;;;;;;5055020;28;20198;-51
2021/12/12 07:49:10;;;;;;;5.82;3.15;;;;;;;;;;5054900;28;20183;-50
2021/12/12 07:51:37;;;;;;;5.15;3.03;;;;;;;;;;5054793;28;20181;-50
2021/12/12 07:54:04;;;;;;;3.80;3.10;;;;;;;;;;5054922;28;20171;-51
2021/12/12 07:56:31;;;;;;;3.65;3.00;;;;;;;;;;5055074;28;20247;-50
2021/12/12 07:58:58;;;;;;;3.10;2.90;;;;;;;;;;5054732;28;20233;-50
2021/12/12 08:01:25;;;;;;;4.25;3.20;;;;;;;;;;5054464;28;20665;-50
2021/12/12 08:03:56;;;;;;;3.58;3.28;;;;;;;;;;5054744;28;20190;-51
2021/12/12 08:06:22;;;;;;;4.75;3.72;;;;;;;;;;5054737;28;20526;-52
2021/12/12 08:08:48;;;;;;;4.75;3.03;;;;;;;;;;5054653;28;20180;-51
2021/12/12 08:11:20;;;;;;;5.47;3.55;;;;;;;;;;5054014;28;20245;-51
2021/12/12 08:13:46;;;;;;;3.45;2.65;;;;;;;;;;5053873;28;20171;-51
2021/12/12 08:16:14;;;;;;;2.73;2.50;;;;;;;;;;5053751;28;20171;-51
2021/12/12 08:18:40;;;;;;;3.15;2.78;;;;;;;;;;5054482;28;20417;-51
2021/12/12 08:21:07;;;;;;;5.30;3.10;;;;;;;;;;5053200;28;20338;-51
2021/12/12 08:23:33;;;;;;;3.47;3.17;;;;;;;;;;5054027;28;20195;-51
2021/12/12 08:26:00;;;;;;;3.25;2.95;;;;;;;;;;5054352;28;20170;-51
2021/12/12 08:28:26;;;;;;;6.10;4.05;;;;;;;;;;5054175;28;20184;-52
2021/12/12 08:30:52;;;;;;;3.50;3.20;;;;;;;;;;5053295;28;20301;-53
2021/12/12 08:33:18;;;;;;;2.90;2.70;;;;;;;;;;5053747;28;20182;-52
2021/12/12 08:35:45;;;;;;;3.45;3.20;;;;;;;;;;5053734;28;20666;-51
2021/12/12 08:38:11;;;;;;;5.53;3.22;;;;;;;;;;5052644;28;20202;-51
2021/12/12 08:40:43;;;;;;;7.60;2.42;;;;;;;;;;5053276;28;20198;-51
2021/12/12 08:43:12;;;;;;;3.30;3.00;;;;;;;;;;5053576;28;20529;-51
2021/12/12 08:45:40;;;;;;;5.32;3.53;;;;;;;;;;5053456;28;20155;-51
2021/12/12 08:48:06;;;;;;;3.47;2.80;;;;;;;;;;5053603;28;20566;-51
2021/12/12 08:50:34;;;;;;;3.38;3.08;;;;;;;;;;5053680;28;20167;-52
2021/12/12 08:53:01;;;;;;;3.20;2.97;;;;;;;;;;5054288;28;20175;-52
2021/12/12 08:55:34;;;;;;;3.50;3.20;;;;;;;;;;5053745;28;20167;-52
2021/12/12 08:58:23;;;;;;;6.78;3.10;;;;;;;;;;5053745;28;20191;-51
2021/12/12 09:00:51;;;;;;;2.60;2.40;;;;;;;;;;5055809;28;20779;-52
2021/12/12 09:03:20;;;;;;;5.75;2.75;;;;;;;;;;5057450;28;20175;-52
2021/12/12 09:05:47;;;;;;;2.55;2.35;;;;;;;;;;5054579;28;20176;-52
2021/12/12 09:08:24;;;;;;;3.08;2.88;;;;;;;;;;5042150;28;20219;-52
2021/12/12 09:10:58;;;;;;;3.40;3.10;;;;;;;;;;5033988;28;20542;-51
2021/12/12 09:13:32;;;;;;;4.25;2.83;;;;;;;;;;5034056;28;20167;-52
2021/12/12 09:16:08;;;;;;;3.00;2.80;;;;;;;;;;5034152;28;20210;-53
2021/12/12 09:18:39;;;;;;;2.85;2.45;;;;;;;;;;5033239;28;20183;-51
2021/12/12 09:21:23;;;;;;;6.30;3.65;;;;;;;;;;5033026;28;20199;-51
2021/12/12 09:26:25;;;;;;;3.03;2.70;;;;;;;;;;5318262;23;20839;-48
2021/12/12 09:28:56;;;;;;;3.08;2.85;;;;;;;;;;5055051;28;20266;-48
2021/12/12 09:31:45;;;;;;;3.40;3.10;;;;;;;;;;5052693;28;20187;-48
2021/12/12 09:34:21;;;;;;;3.40;3.15;;;;;;;;;;5024764;28;20193;-48
2021/12/12 09:36:51;;;;;;;6.90;3.40;;;;;;;;;;5052295;28;20186;-47
2021/12/12 09:39:24;;;;;;;2.80;2.60;;;;;;;;;;5053541;28;20174;-48
2021/12/12 09:42:03;;;;;;;3.30;3.00;;;;;;;;;;5052707;28;20694;-48
2021/12/12 09:44:43;;;;;;;2.90;2.70;;;;;;;;;;5052640;28;20532;-48
2021/12/12 09:47:36;;;;;;;3.55;3.25;;;;;;;;;;5052685;28;20242;-48
2021/12/12 09:53:39;;;;;;;4.30;3.90;;;;;;;;;;5018917;28;20438;-48
2021/12/12 09:56:05;;;;;;;3.75;3.45;;;;;;;;;;5050937;28;20797;-47
2021/12/12 09:58:43;;;;;;;3.30;3.10;;;;;;;;;;5051991;28;20164;-49
2021/12/12 10:01:12;;;;;;;3.40;3.10;;;;;;;;;;5052369;28;20453;-48
2021/12/12 10:03:49;;;;;;;4.85;3.72;;;;;;;;;;5052481;28;20413;-48
2021/12/12 10:06:29;;;;;;;3.47;3.20;;;;;;;;;;5051767;28;20211;-48
2021/12/12 10:09:15;;;;;;;6.67;3.97;;;;;;;;;;5052293;28;20163;-48
2021/12/12 10:11:58;;;;;;;3.15;2.95;;;;;;;;;;5052207;28;20405;-48
2021/12/12 10:14:50;;;;;;;4.20;3.90;;;;;;;;;;5044577;28;20196;-48
2021/12/12 10:17:52;;;;;;;4.35;3.95;;;;;;;;;;5010423;28;20188;-49
2021/12/12 10:20:20;;;;;;;4.30;3.90;;;;;;;;;;4970868;28;20695;-49
2021/12/12 10:22:54;;;;;;;5.10;4.60;;;;;;;;;;5004830;28;20184;-48
2021/12/12 10:25:27;;;;;;;5.63;4.93;;;;;;;;;;5039117;28;20230;-48
2021/12/12 10:27:56;;;;;;;6.88;5.53;;;;;;;;;;5023737;28;20441;-49
2021/12/12 10:30:27;;;;;;;10.07;5.82;;;;;;;;;;5031570;28;20261;-48
2021/12/12 10:33:12;;;;;;;5.03;4.30;;;;;;;;;;5031930;28;20180;-49
2021/12/12 10:35:43;;;;;;;9.70;5.80;;;;;;;;;;5031128;28;20515;-49
2021/12/12 10:38:11;;;;;;;9.03;5.63;;;;;;;;;;5031766;28;20773;-49
2021/12/12 10:40:44;;;;;;;8.27;5.80;;;;;;;;;;5031279;28;20474;-48
2021/12/12 10:43:12;;;;;;;9.80;7.57;;;;;;;;;;5031782;28;20518;-49
2021/12/12 10:45:44;;;;;;;7.10;6.40;;;;;;;;;;5030975;28;20419;-49
2021/12/12 10:48:14;;;;;;;7.97;6.40;;;;;;;;;;5031678;28;20434;-48
2021/12/12 10:50:41;;;;;;;11.43;6.50;;;;;;;;;;5031541;28;20411;-48
2021/12/12 10:53:13;;;;;;;9.07;6.70;;;;;;;;;;5031599;28;20403;-48
2021/12/12 10:55:55;;;;;;;7.53;6.00;;;;;;;;;;5030831;28;20438;-48
2021/12/12 10:58:29;;;;;;;10.13;6.73;;;;;;;;;;5031802;28;20391;-49
2021/12/12 11:00:58;;;;;;;7.97;6.27;;;;;;;;;;5031425;28;20462;-51
2021/12/12 11:03:29;;;;;;;9.00;6.90;;;;;;;;;;5031120;28;20402;-48
2021/12/12 11:05:59;;;;;;;13.43;7.00;;;;;;;;;;5030718;28;20446;-48
2021/12/12 11:08:30;;;;;;;7.90;6.63;;;;;;;;;;5032093;28;20789;-48
2021/12/12 11:10:57;;;;;;;9.27;7.17;;;;;;;;;;5035668;28;20887;-49
2021/12/12 11:13:26;;;;;;;9.57;7.20;;;;;;;;;;5035615;28;20438;-50
2021/12/12 11:15:55;;;;;;;10.30;7.57;;;;;;;;;;5034766;28;20473;-48
2021/12/12 11:18:41;;;;;;;14.30;7.20;;;;;;;;;;5035515;28;20420;-49
2021/12/12 11:21:28;;;;;;;9.07;6.37;;;;;;;;;;5028188;28;20471;-49
2021/12/12 11:24:20;;;;;;;10.43;5.83;;;;;;;;;;5035387;28;20441;-48
2021/12/12 11:26:54;;;;;;;6.90;5.23;;;;;;;;;;5032818;28;20783;-49
2021/12/12 11:29:24;;;;;;;7.50;6.57;;;;;;;;;;5035366;28;20465;-48
2021/12/12 11:31:54;;;;;;;7.17;5.37;;;;;;;;;;5035299;28;20961;-48
2021/12/12 11:34:21;;;;;;;6.30;5.67;;;;;;;;;;5035239;28;20403;-49
2021/12/12 11:36:47;;;;;;;11.63;6.27;;;;;;;;;;5034439;28;20424;-48
2021/12/12 11:39:17;;;;;;;9.23;5.80;;;;;;;;;;5035005;28;20409;-49
2021/12/12 11:41:54;;;;;;;8.70;5.67;;;;;;;;;;5035076;28;20925;-48
2021/12/12 11:44:23;;;;;;;7.70;6.40;;;;;;;;;;5035144;28;20397;-50
2021/12/12 11:46:49;;;;;;;6.17;4.80;;;;;;;;;;5034925;28;20444;-48
2021/12/12 11:49:23;;;;;;;5.40;4.90;;;;;;;;;;5034949;28;20457;-49
2021/12/12 11:51:51;;;;;;;4.83;4.30;;;;;;;;;;5034904;28;20474;-49
2021/12/12 11:54:26;;;;;;;5.43;4.83;;;;;;;;;;5034848;28;20423;-50
2021/12/12 11:56:55;;;;;;;4.67;4.27;;;;;;;;;;5034320;28;20425;-48
2021/12/12 11:59:31;;;;;;;4.40;4.00;;;;;;;;;;5035135;28;20389;-48
2021/12/12 12:02:03;;;;;;;5.60;3.97;;;;;;;;;;5034803;28;20409;-48
2021/12/12 12:04:38;;;;;;;5.03;4.33;;;;;;;;;;5034286;28;20395;-48
2021/12/12 12:07:09;;;;;;;4.27;3.80;;;;;;;;;;5034651;28;20483;-49
2021/12/12 12:09:35;;;;;;;4.30;4.00;;;;;;;;;;5034438;28;20840;-48
2021/12/12 12:12:20;;;;;;;5.60;4.37;;;;;;;;;;5033986;28;20943;-49
2021/12/12 12:15:02;;;;;;;6.80;4.20;;;;;;;;;;5033522;28;20400;-48
2021/12/12 12:17:48;;;;;;;3.93;3.50;;;;;;;;;;5034599;28;20407;-48
2021/12/12 12:20:23;;;;;;;9.00;3.70;;;;;;;;;;5012384;28;20486;-48
2021/12/12 12:22:56;;;;;;;3.60;3.30;;;;;;;;;;5034181;28;20878;-49
2021/12/12 12:25:27;;;;;;;3.80;3.50;;;;;;;;;;5033462;28;20415;-48
2021/12/12 12:27:59;;;;;;;2.93;2.77;;;;;;;;;;5033739;28;20424;-49
2021/12/12 12:30:31;;;;;;;3.87;3.50;;;;;;;;;;5034108;28;20418;-48
2021/12/12 12:33:26;;;;;;;3.30;3.10;;;;;;;;;;5033990;28;20412;-49
2021/12/12 12:36:10;;;;;;;2.80;2.60;;;;;;;;;;5033172;28;20436;-50
2021/12/12 12:38:56;;;;;;;4.27;3.43;;;;;;;;;;5033969;28;20419;-48
2021/12/12 12:41:41;;;;;;;2.90;2.70;;;;;;;;;;5033821;28;20538;-50
2021/12/12 12:44:35;;;;;;;3.67;3.00;;;;;;;;;;5034038;28;20407;-50
2021/12/12 12:47:20;;;;;;;2.80;2.60;;;;;;;;;;5033829;28;20527;-48
2021/12/12 12:50:07;;;;;;;5.03;3.10;;;;;;;;;;5032470;28;21026;-48
2021/12/12 12:52:33;;;;;;;3.10;2.90;;;;;;;;;;5033773;28;20803;-50
2021/12/12 12:55:17;;;;;;;2.90;2.70;;;;;;;;;;5032893;28;20942;-50
2021/12/12 12:57:44;;;;;;;3.07;2.87;;;;;;;;;;5033455;28;20975;-49
2021/12/12 13:00:10;;;;;;;3.20;2.50;;;;;;;;;;5033121;28;20455;-48
2021/12/12 13:02:56;;;;;;;2.93;2.70;;;;;;;;;;5033754;28;20775;-49
2021/12/12 13:05:41;;;;;;;3.27;2.97;;;;;;;;;;5025566;28;20946;-48
2021/12/12 13:08:26;;;;;;;3.03;2.83;;;;;;;;;;5033430;28;20398;-48
2021/12/12 13:10:52;;;;;;;3.87;2.60;;;;;;;;;;5033427;28;20406;-49
2021/12/12 13:13:27;;;;;;;6.13;3.37;;;;;;;;;;5033306;28;20473;-50
2021/12/12 13:15:53;;;;;;;3.30;3.10;;;;;;;;;;5032822;28;20439;-48
2021/12/12 13:18:38;;;;;;;3.67;3.40;;;;;;;;;;5032957;28;20458;-49
2021/12/12 13:21:12;;;;;;;2.83;2.73;;;;;;;;;;5033132;28;20566;-48
2021/12/12 13:23:57;;;;;;;3.30;3.10;;;;;;;;;;5032788;28;20455;-48
2021/12/12 13:26:28;;;;;;;5.47;3.67;;;;;;;;;;5032541;28;20507;-49
2021/12/12 13:29:15;;;;;;;7.23;3.00;;;;;;;;;;5033079;28;20426;-49
2021/12/12 13:31:50;;;;;;;4.33;3.20;;;;;;;;;;5033058;28;20395;-48
2021/12/12 13:34:28;;;;;;;3.87;3.33;;;;;;;;;;5032927;28;20410;-48
2021/12/12 13:37:13;;;;;;;3.50;3.30;;;;;;;;;;5032747;28;20425;-48
2021/12/12 13:39:58;;;;;;;4.33;3.83;;;;;;;;;;5032518;28;20422;-48
2021/12/12 13:42:38;;;;;;;3.73;3.43;;;;;;;;;;5032968;28;20403;-48
2021/12/12 13:45:07;;;;;;;4.97;4.20;;;;;;;;;;5032129;28;20428;-48
2021/12/12 13:47:50;;;;;;;3.83;3.10;;;;;;;;;;5033291;28;20403;-49
2021/12/12 13:50:26;;;;;;;4.47;4.00;;;;;;;;;;5032529;28;20407;-48
2021/12/12 13:52:58;;;;;;;5.20;3.57;;;;;;;;;;5032722;28;20428;-48
2021/12/12 13:55:27;;;;;;;3.10;2.90;;;;;;;;;;5031874;28;20488;-49
2021/12/12 13:58:03;;;;;;;3.13;2.83;;;;;;;;;;5032687;28;20397;-49
2021/12/12 14:00:32;;;;;;;4.17;3.73;;;;;;;;;;5032171;28;20452;-48
2021/12/12 14:03:12;;;;;;;3.83;3.60;;;;;;;;;;5032554;28;20404;-49
2021/12/12 14:05:40;;;;;;;4.73;4.23;;;;;;;;;;5031626;28;20424;-48
2021/12/12 14:08:13;;;;;;;3.83;3.30;;;;;;;;;;5032535;28;20401;-48
2021/12/12 14:10:41;;;;;;;5.80;4.00;;;;;;;;;;5032299;28;20407;-48
2021/12/12 14:13:11;;;;;;;7.10;4.30;;;;;;;;;;5032402;28;20508;-48
2021/12/12 14:15:41;;;;;;;11.90;4.10;;;;;;;;;;5031497;28;20495;-48
2021/12/12 14:18:10;;;;;;;7.20;3.67;;;;;;;;;;5032275;28;20443;-48
2021/12/12 14:20:48;;;;;;;3.83;3.37;;;;;;;;;;5031985;28;20972;-49
2021/12/12 14:23:18;;;;;;;5.10;4.60;;;;;;;;;;5032212;28;20497;-49
2021/12/12 14:25:46;;;;;;;4.50;4.10;;;;;;;;;;5031423;28;20417;-48
2021/12/12 14:28:13;;;;;;;5.03;4.63;;;;;;;;;;5031550;28;20916;-48
2021/12/12 14:30:41;;;;;;;9.77;4.53;;;;;;;;;;5031898;28;20543;-49
2021/12/12 14:33:12;;;;;;;4.63;3.80;;;;;;;;;;5031772;28;20412;-48
2021/12/12 14:35:41;;;;;;;7.83;4.43;;;;;;;;;;5031199;28;20416;-49
2021/12/12 14:38:08;;;;;;;5.00;4.20;;;;;;;;;;5032179;28;20434;-50
2021/12/12 14:40:35;;;;;;;4.73;4.33;;;;;;;;;;5031767;28;20459;-50
2021/12/12 14:43:04;;;;;;;4.07;3.73;;;;;;;;;;5031283;28;20896;-48
2021/12/12 14:45:42;;;;;;;10.83;3.67;;;;;;;;;;5031000;28;20932;-49
2021/12/12 14:48:14;;;;;;;4.03;3.73;;;;;;;;;;5031803;28;20404;-48
2021/12/12 14:50:48;;;;;;;3.90;3.53;;;;;;;;;;5031710;28;20449;-48
2021/12/12 14:53:15;;;;;;;5.17;4.00;;;;;;;;;;5031742;28;20410;-48
2021/12/12 14:55:41;;;;;;;3.93;3.63;;;;;;;;;;5031273;28;20510;-48
2021/12/12 14:58:14;;;;;;;6.57;5.00;;;;;;;;;;5031558;28;20446;-48
2021/12/12 15:00:43;;;;;;;4.83;4.43;;;;;;;;;;5031536;28;20456;-49
2021/12/12 15:03:11;;;;;;;4.90;4.13;;;;;;;;;;5031532;28;20628;-49
2021/12/12 15:05:37;;;;;;;5.50;5.00;;;;;;;;;;5030792;28;20424;-50
2021/12/12 15:08:11;;;;;;;5.10;4.70;;;;;;;;;;5031700;28;20431;-50
2021/12/12 15:10:59;;;;;;;5.30;4.33;;;;;;;;;;5031578;28;20399;-49
2021/12/12 15:13:26;;;;;;;5.00;4.53;;;;;;;;;;5032001;28;20437;-48
2021/12/12 15:16:02;;;;;;;8.77;5.27;;;;;;;;;;5030879;28;20460;-49
2021/12/12 15:18:33;;;;;;;5.67;5.20;;;;;;;;;;5031624;28;20422;-48
2021/12/12 15:21:02;;;;;;;4.67;4.27;;;;;;;;;;5031395;28;20463;-48
2021/12/12 15:23:30;;;;;;;7.10;4.80;;;;;;;;;;5031316;28;20405;-49
2021/12/12 15:26:17;;;;;;;5.67;5.17;;;;;;;;;;5030625;28;20516;-48
2021/12/12 15:28:44;;;;;;;4.87;4.47;;;;;;;;;;5031448;28;20433;-49